Time;durP1;ratioP1;P1;durP2;ratioP2;P2;SDS_P1;SDS_P2;PMS_P1;PMS_P2;Temp;Humidity;BMP_temperature;BMP_pressure;BME280_temperature;BME280_humidity;BME280_pressure;Samples;Min_cycle;Max_cycle;Signal;HPM_P1;HPM_P2
2022/08/31 00:04:26;;;;;;;2.10;1.90;;;17.00;99.90;;;;;;5080800;28;20449;-60
2022/08/31 00:06:53;;;;;;;1.63;1.40;;;17.00;99.90;;;;;;5080844;28;20493;-61
2022/08/31 00:09:20;;;;;;;2.67;1.50;;;16.90;99.90;;;;;;5080360;28;20478;-58
2022/08/31 00:11:47;;;;;;;3.43;1.60;;;16.90;99.90;;;;;;5079775;28;20461;-60
2022/08/31 00:14:15;;;;;;;1.93;1.17;;;16.90;99.90;;;;;;5079941;28;20536;-61
2022/08/31 00:16:46;;;;;;;2.00;1.60;;;16.90;99.90;;;;;;5079752;28;20439;-61
2022/08/31 00:19:13;;;;;;;3.47;1.60;;;16.90;99.90;;;;;;5079876;28;20497;-62
2022/08/31 00:21:40;;;;;;;2.10;1.27;;;16.90;99.90;;;;;;5080236;28;20510;-60
2022/08/31 00:24:08;;;;;;;5.23;1.50;;;16.80;99.90;;;;;;5079607;28;20446;-61
2022/08/31 00:26:39;;;;;;;2.87;1.57;;;16.80;99.90;;;;;;5079665;28;20474;-56
2022/08/31 00:29:06;;;;;;;1.90;1.50;;;16.80;99.90;;;;;;5079843;28;20434;-59
2022/08/31 00:31:34;;;;;;;2.20;1.57;;;16.80;99.90;;;;;;5079066;28;20537;-60
2022/08/31 00:34:01;;;;;;;6.53;1.73;;;16.70;99.90;;;;;;5079093;28;20462;-61
2022/08/31 00:36:28;;;;;;;2.03;1.47;;;16.70;99.90;;;;;;5079547;28;20458;-60
2022/08/31 00:38:55;;;;;;;1.70;1.57;;;16.70;99.90;;;;;;5079212;28;20839;-62
2022/08/31 00:41:24;;;;;;;2.07;1.30;;;16.70;99.90;;;;;;5079140;28;20442;-57
2022/08/31 00:43:54;;;;;;;2.57;1.63;;;16.60;99.90;;;;;;5079804;28;20529;-59
2022/08/31 00:46:23;;;;;;;1.57;1.40;;;16.70;99.90;;;;;;5079191;28;20478;-56
2022/08/31 00:48:59;;;;;;;2.13;1.40;;;16.70;99.90;;;;;;5079737;28;20464;-61
2022/08/31 00:51:28;;;;;;;3.37;1.30;;;16.70;99.90;;;;;;5080316;28;20434;-61
2022/08/31 00:53:56;;;;;;;2.57;1.83;;;16.60;99.90;;;;;;5080804;28;20470;-59
2022/08/31 00:56:24;;;;;;;4.47;1.80;;;16.60;99.90;;;;;;5080126;28;20457;-60
2022/08/31 00:58:51;;;;;;;2.57;1.60;;;16.60;99.90;;;;;;5079631;28;20556;-63
2022/08/31 01:01:19;;;;;;;2.20;1.67;;;16.50;99.90;;;;;;5079347;28;20449;-60
2022/08/31 01:03:46;;;;;;;2.57;1.37;;;16.50;99.90;;;;;;5079146;28;20438;-53
2022/08/31 01:06:15;;;;;;;3.23;1.23;;;16.50;99.90;;;;;;5079057;28;20973;-61
2022/08/31 01:08:43;;;;;;;2.50;1.43;;;16.50;99.90;;;;;;5079301;28;20525;-61
2022/08/31 01:11:10;;;;;;;2.90;1.37;;;16.40;99.90;;;;;;5079223;28;20541;-61
2022/08/31 01:13:37;;;;;;;2.93;1.57;;;16.40;99.90;;;;;;5079150;28;20473;-56
2022/08/31 01:16:10;;;;;;;3.57;1.90;;;16.40;99.90;;;;;;5078541;28;20470;-62
2022/08/31 01:18:38;;;;;;;2.60;1.77;;;16.40;99.90;;;;;;5078886;28;20427;-57
2022/08/31 01:21:17;;;;;;;3.83;1.60;;;16.40;99.90;;;;;;5079186;28;20466;-57
2022/08/31 01:23:46;;;;;;;5.50;1.90;;;16.40;99.90;;;;;;5078994;28;20953;-57
2022/08/31 01:26:16;;;;;;;2.90;1.20;;;16.30;99.90;;;;;;5080010;28;20470;-60
2022/08/31 01:28:43;;;;;;;2.30;1.27;;;16.30;99.90;;;;;;5080746;28;20431;-62
2022/08/31 01:31:15;;;;;;;2.60;1.57;;;16.40;99.90;;;;;;5079665;28;20469;-61
2022/08/31 01:33:45;;;;;;;2.43;1.50;;;16.30;99.90;;;;;;5079065;28;20442;-60
2022/08/31 01:36:13;;;;;;;5.07;1.30;;;16.30;99.90;;;;;;5078825;28;20438;-56
2022/08/31 01:38:40;;;;;;;1.90;1.20;;;16.30;99.90;;;;;;5078508;28;20538;-61
2022/08/31 01:41:09;;;;;;;2.80;1.47;;;16.30;99.90;;;;;;5079155;28;20828;-61
2022/08/31 01:43:36;;;;;;;7.93;1.90;;;16.30;99.90;;;;;;5079282;28;20454;-59
2022/08/31 01:46:04;;;;;;;1.40;1.03;;;16.30;99.90;;;;;;5079271;28;20443;-61
2022/08/31 01:48:32;;;;;;;2.50;1.93;;;16.30;99.90;;;;;;5078754;28;20557;-57
2022/08/31 01:51:01;;;;;;;1.97;1.30;;;16.30;99.90;;;;;;5078814;28;20451;-62
2022/08/31 01:53:28;;;;;;;1.50;1.40;;;16.30;99.90;;;;;;5081804;28;20911;-62
2022/08/31 01:55:58;;;;;;;2.70;1.60;;;16.30;99.90;;;;;;5083346;28;20452;-61
2022/08/31 01:58:26;;;;;;;2.50;1.53;;;16.20;99.90;;;;;;5084462;28;20438;-55
2022/08/31 02:00:53;;;;;;;2.33;1.40;;;16.30;99.90;;;;;;5084010;28;20575;-62
2022/08/31 02:03:20;;;;;;;2.33;1.60;;;16.40;99.90;;;;;;5084327;28;20442;-55
2022/08/31 02:05:50;;;;;;;2.33;1.70;;;16.40;99.90;;;;;;5083444;28;20573;-61
2022/08/31 02:08:17;;;;;;;1.70;1.50;;;16.40;99.90;;;;;;5083577;28;20474;-54
2022/08/31 02:10:45;;;;;;;1.30;1.07;;;16.40;99.90;;;;;;5083092;28;20489;-63
2022/08/31 02:13:12;;;;;;;2.13;1.30;;;16.40;99.90;;;;;;5082945;28;20438;-60
2022/08/31 02:15:40;;;;;;;2.93;1.60;;;16.40;99.90;;;;;;5082476;28;20545;-55
2022/08/31 02:18:07;;;;;;;2.83;1.33;;;16.40;99.90;;;;;;5082309;28;20448;-62
2022/08/31 02:20:36;;;;;;;1.40;1.30;;;16.50;99.90;;;;;;5082068;28;20858;-62
2022/08/31 02:23:03;;;;;;;2.63;1.53;;;16.50;99.90;;;;;;5082453;28;20470;-55
2022/08/31 02:25:30;;;;;;;3.57;1.60;;;16.60;99.90;;;;;;5082403;28;20482;-63
2022/08/31 02:27:57;;;;;;;1.20;0.90;;;16.60;99.90;;;;;;5083000;28;20553;-62
2022/08/31 02:30:24;;;;;;;3.13;1.60;;;16.60;99.90;;;;;;5082191;28;20448;-61
2022/08/31 02:32:52;;;;;;;2.00;1.70;;;16.70;99.90;;;;;;5082203;28;20461;-59
2022/08/31 02:35:19;;;;;;;2.60;1.67;;;16.70;99.90;;;;;;5082340;28;20472;-61
2022/08/31 02:37:46;;;;;;;2.70;1.80;;;16.70;99.90;;;;;;5081925;28;20445;-56
2022/08/31 02:40:13;;;;;;;2.23;1.47;;;16.70;99.90;;;;;;5082492;28;20452;-55
2022/08/31 02:42:40;;;;;;;3.37;1.43;;;16.70;99.90;;;;;;5082054;28;20508;-61
2022/08/31 02:45:08;;;;;;;2.00;1.10;;;16.70;99.90;;;;;;5081720;28;20477;-56
2022/08/31 02:47:35;;;;;;;3.00;1.50;;;16.70;99.90;;;;;;5082330;28;20493;-59
2022/08/31 02:50:06;;;;;;;2.50;1.40;;;16.80;99.90;;;;;;5082931;28;20462;-59
2022/08/31 02:52:32;;;;;;;2.87;1.47;;;16.80;99.90;;;;;;5082338;28;20546;-61
2022/08/31 02:55:02;;;;;;;9.50;1.83;;;16.80;99.90;;;;;;5083308;28;20472;-60
2022/08/31 02:57:29;;;;;;;2.20;1.60;;;16.80;99.90;;;;;;5083024;28;20430;-62
2022/08/31 02:59:56;;;;;;;1.90;1.40;;;16.80;99.90;;;;;;5082508;28;20469;-58
2022/08/31 03:02:24;;;;;;;2.07;1.40;;;16.80;99.90;;;;;;5081990;28;20478;-54
2022/08/31 03:04:51;;;;;;;2.43;1.30;;;16.80;99.90;;;;;;5080754;28;20473;-59
2022/08/31 03:07:21;;;;;;;1.80;1.13;;;16.80;99.90;;;;;;5081617;28;20497;-60
2022/08/31 03:09:48;;;;;;;4.07;1.70;;;16.80;99.90;;;;;;5082267;28;20537;-61
2022/08/31 03:12:15;;;;;;;2.13;1.57;;;16.80;99.90;;;;;;5082055;28;20475;-61
2022/08/31 03:14:42;;;;;;;2.80;1.47;;;16.80;99.90;;;;;;5081537;28;20447;-57
2022/08/31 03:17:09;;;;;;;4.93;2.00;;;16.70;99.90;;;;;;5080854;28;20444;-55
2022/08/31 03:19:36;;;;;;;1.87;1.63;;;16.80;99.90;;;;;;5081275;28;20434;-58
2022/08/31 03:22:03;;;;;;;3.73;1.30;;;16.80;99.90;;;;;;5084402;28;20492;-51
2022/08/31 03:24:31;;;;;;;5.10;1.40;;;16.80;99.90;;;;;;5084856;28;20529;-52
2022/08/31 03:26:58;;;;;;;2.33;1.97;;;16.80;99.90;;;;;;5084479;28;20534;-53
2022/08/31 03:29:25;;;;;;;2.60;1.43;;;16.70;99.90;;;;;;5084733;28;20512;-56
2022/08/31 03:31:52;;;;;;;4.07;1.80;;;16.70;99.90;;;;;;5084266;28;20447;-53
2022/08/31 03:34:19;;;;;;;2.37;1.30;;;16.70;99.90;;;;;;5083574;28;20462;-51
2022/08/31 03:36:45;;;;;;;3.47;1.63;;;16.70;99.90;;;;;;5083803;28;20907;-53
2022/08/31 03:39:12;;;;;;;5.17;1.70;;;16.70;99.90;;;;;;5084188;28;20453;-56
2022/08/31 03:41:40;;;;;;;2.47;1.50;;;16.70;99.90;;;;;;5083958;28;20546;-57
2022/08/31 03:44:07;;;;;;;2.97;1.50;;;16.60;99.90;;;;;;5084222;28;20497;-49
2022/08/31 03:46:34;;;;;;;1.80;1.40;;;16.60;99.90;;;;;;5083663;28;20549;-52
2022/08/31 03:49:06;;;;;;;2.20;1.77;;;16.50;99.90;;;;;;5084588;28;20478;-56
2022/08/31 03:51:33;;;;;;;1.97;1.50;;;16.50;99.90;;;;;;5084008;28;20474;-51
2022/08/31 03:54:00;;;;;;;2.60;1.40;;;16.50;99.90;;;;;;5084543;28;20446;-51
2022/08/31 03:56:26;;;;;;;2.50;1.57;;;16.40;99.90;;;;;;5084280;28;20484;-54
2022/08/31 03:58:54;;;;;;;2.30;1.30;;;16.40;99.90;;;;;;5084288;28;20438;-54
2022/08/31 04:01:21;;;;;;;2.03;1.50;;;16.40;99.90;;;;;;5084697;28;20573;-56
2022/08/31 04:03:48;;;;;;;4.47;1.50;;;16.40;99.90;;;;;;5084211;28;20441;-51
2022/08/31 04:06:15;;;;;;;3.67;1.53;;;16.40;99.90;;;;;;5084093;28;20533;-53
2022/08/31 04:08:42;;;;;;;2.90;1.67;;;16.30;99.90;;;;;;5084004;28;20557;-49
2022/08/31 04:11:11;;;;;;;4.27;3.30;;;16.40;99.90;;;;;;5084408;28;20458;-52
2022/08/31 04:13:39;;;;;;;9.40;2.20;;;16.30;99.90;;;;;;5084319;28;20466;-53
2022/08/31 04:16:10;;;;;;;2.30;1.43;;;16.40;99.90;;;;;;5083396;28;20861;-56
2022/08/31 04:18:37;;;;;;;2.83;1.77;;;16.40;99.90;;;;;;5084011;28;20462;-55
2022/08/31 04:21:05;;;;;;;2.33;1.40;;;16.30;99.90;;;;;;5084241;28;20455;-55
2022/08/31 04:23:32;;;;;;;3.13;1.40;;;16.30;99.90;;;;;;5083808;28;20447;-57
2022/08/31 04:25:59;;;;;;;4.10;1.63;;;16.30;99.90;;;;;;5083852;28;20443;-53
2022/08/31 04:28:25;;;;;;;3.23;1.73;;;16.30;99.90;;;;;;5083727;28;20486;-53
2022/08/31 04:30:52;;;;;;;2.23;1.67;;;16.30;99.90;;;;;;5083345;28;21030;-52
2022/08/31 04:33:20;;;;;;;1.93;1.73;;;16.30;99.90;;;;;;5083950;28;20533;-50
2022/08/31 04:35:47;;;;;;;2.07;1.50;;;16.20;99.90;;;;;;5083028;28;20496;-54
2022/08/31 04:38:14;;;;;;;3.83;1.33;;;16.20;99.90;;;;;;5083423;28;20458;-51
2022/08/31 04:40:42;;;;;;;2.57;1.70;;;16.20;99.90;;;;;;5082894;28;20478;-51
2022/08/31 04:43:09;;;;;;;1.83;1.50;;;16.10;99.90;;;;;;5083668;28;20442;-57
2022/08/31 04:45:41;;;;;;;2.07;1.40;;;16.10;99.90;;;;;;5083247;28;20473;-55
2022/08/31 04:48:08;;;;;;;2.87;1.50;;;16.10;99.90;;;;;;5083818;28;20485;-56
2022/08/31 04:50:36;;;;;;;2.13;1.93;;;16.10;99.90;;;;;;5083816;28;20446;-54
2022/08/31 04:53:03;;;;;;;3.10;2.03;;;16.10;99.90;;;;;;5084047;28;20447;-51
2022/08/31 04:55:29;;;;;;;3.03;1.50;;;16.00;99.90;;;;;;5083809;28;20452;-51
2022/08/31 04:57:56;;;;;;;2.10;1.73;;;16.00;99.90;;;;;;5083538;28;20852;-55
2022/08/31 05:00:23;;;;;;;2.17;1.97;;;16.10;99.90;;;;;;5083433;28;20454;-56
2022/08/31 05:02:52;;;;;;;3.10;1.60;;;16.00;99.90;;;;;;5083247;28;20520;-51
2022/08/31 05:05:18;;;;;;;2.80;1.40;;;16.00;99.90;;;;;;5083583;28;20442;-53
2022/08/31 05:07:47;;;;;;;4.27;1.83;;;16.00;99.90;;;;;;5083605;28;20545;-51
2022/08/31 05:10:14;;;;;;;2.07;1.63;;;16.00;99.90;;;;;;5083201;28;20576;-54
2022/08/31 05:12:40;;;;;;;4.83;2.37;;;16.10;99.90;;;;;;5083128;28;20477;-53
2022/08/31 05:15:08;;;;;;;2.93;1.43;;;16.10;99.90;;;;;;5083528;28;20446;-51
2022/08/31 05:17:35;;;;;;;2.00;1.40;;;16.10;99.90;;;;;;5083039;28;20473;-53
2022/08/31 05:20:04;;;;;;;2.70;1.50;;;16.20;99.90;;;;;;5083068;28;20561;-52
2022/08/31 05:22:30;;;;;;;5.07;2.00;;;16.20;99.90;;;;;;5083029;28;20445;-55
2022/08/31 05:24:59;;;;;;;2.70;1.60;;;16.20;99.90;;;;;;5083084;28;20457;-56
2022/08/31 05:27:26;;;;;;;2.00;1.53;;;16.20;99.90;;;;;;5082179;28;20513;-52
2022/08/31 05:29:53;;;;;;;1.87;1.47;;;16.20;99.90;;;;;;5082844;28;20461;-48
2022/08/31 05:32:19;;;;;;;2.70;1.83;;;16.20;99.90;;;;;;5082596;28;20531;-52
2022/08/31 05:34:46;;;;;;;3.50;1.97;;;16.20;99.90;;;;;;5082998;28;20530;-57
2022/08/31 05:37:14;;;;;;;3.30;2.00;;;16.20;99.90;;;;;;5082799;28;20488;-54
2022/08/31 05:39:41;;;;;;;3.10;1.97;;;16.20;99.90;;;;;;5083273;28;20477;-52
2022/08/31 05:42:14;;;;;;;1.83;1.63;;;16.20;99.90;;;;;;5083178;28;20471;-53
2022/08/31 05:44:41;;;;;;;2.30;1.57;;;16.30;99.90;;;;;;5082326;28;20446;-52
2022/08/31 05:47:08;;;;;;;4.87;1.93;;;16.30;99.90;;;;;;5082549;28;20477;-54
2022/08/31 05:49:35;;;;;;;2.03;1.50;;;16.30;99.90;;;;;;5083155;28;20488;-56
2022/08/31 05:52:04;;;;;;;1.80;1.57;;;16.30;99.90;;;;;;5082852;28;20462;-54
2022/08/31 05:54:34;;;;;;;1.70;1.57;;;16.40;99.90;;;;;;5083078;28;20446;-55
2022/08/31 05:57:01;;;;;;;3.60;1.93;;;16.50;99.90;;;;;;5082499;28;20470;-51
2022/08/31 05:59:29;;;;;;;3.60;2.50;;;16.50;99.90;;;;;;5082993;28;20454;-50
2022/08/31 06:01:57;;;;;;;5.07;2.47;;;16.50;99.90;;;;;;5082740;28;20466;-53
2022/08/31 06:04:24;;;;;;;4.43;1.70;;;16.50;99.90;;;;;;5083046;28;20529;-55
2022/08/31 06:06:51;;;;;;;2.17;1.37;;;16.50;99.90;;;;;;5083483;28;20467;-54
2022/08/31 06:09:18;;;;;;;2.57;1.47;;;16.60;99.90;;;;;;5082946;28;20473;-54
2022/08/31 06:11:45;;;;;;;2.00;1.80;;;16.60;99.90;;;;;;5082985;28;20459;-56
2022/08/31 06:14:12;;;;;;;4.03;1.60;;;16.70;99.90;;;;;;5082606;28;20521;-55
2022/08/31 06:16:44;;;;;;;2.07;1.60;;;16.70;99.90;;;;;;5083167;28;20481;-56
2022/08/31 06:19:11;;;;;;;5.87;1.63;;;16.80;99.90;;;;;;5082752;28;20422;-51
2022/08/31 06:21:41;;;;;;;3.07;1.30;;;16.80;99.90;;;;;;5083011;28;20534;-51
2022/08/31 06:24:10;;;;;;;4.10;1.67;;;16.90;99.90;;;;;;5083263;28;20446;-53
2022/08/31 06:26:38;;;;;;;2.30;1.70;;;16.90;99.90;;;;;;5082829;28;20474;-55
2022/08/31 06:29:08;;;;;;;7.30;1.80;;;16.90;99.90;;;;;;5084013;28;20463;-55
2022/08/31 06:31:45;;;;;;;4.37;1.33;;;16.90;99.90;;;;;;5083234;28;20466;-52
2022/08/31 06:34:15;;;;;;;2.80;1.60;;;17.00;99.90;;;;;;5083141;28;20966;-52
2022/08/31 06:36:42;;;;;;;3.33;1.60;;;17.10;99.90;;;;;;5082186;28;20546;-55
2022/08/31 06:39:11;;;;;;;4.13;1.90;;;17.20;99.90;;;;;;5084672;28;20461;-56
2022/08/31 06:41:40;;;;;;;5.57;1.40;;;17.20;99.90;;;;;;5085374;28;20466;-55
2022/08/31 06:44:10;;;;;;;3.50;2.27;;;17.20;99.90;;;;;;5085250;28;20449;-53
2022/08/31 06:46:38;;;;;;;2.33;1.70;;;17.30;99.90;;;;;;5085381;28;20557;-52
2022/08/31 06:49:05;;;;;;;4.93;1.80;;;17.30;99.90;;;;;;5085094;28;20465;-56
2022/08/31 06:51:36;;;;;;;2.90;1.30;;;17.40;99.90;;;;;;5085506;28;20533;-56
2022/08/31 06:54:05;;;;;;;2.10;1.23;;;17.50;99.90;;;;;;5085316;28;20489;-56
2022/08/31 06:56:33;;;;;;;2.67;1.67;;;17.60;99.90;;;;;;5085100;28;20504;-57
2022/08/31 06:59:00;;;;;;;3.40;1.60;;;17.70;99.90;;;;;;5084681;28;20895;-51
2022/08/31 07:01:29;;;;;;;1.77;1.50;;;17.80;99.90;;;;;;5084692;28;20533;-57
2022/08/31 07:03:57;;;;;;;2.10;1.30;;;17.80;99.90;;;;;;5084734;28;20490;-56
2022/08/31 07:06:26;;;;;;;1.90;1.60;;;17.90;99.90;;;;;;5084685;28;20443;-55
2022/08/31 07:09:00;;;;;;;2.23;1.93;;;18.00;99.90;;;;;;5083711;28;20490;-53
2022/08/31 07:11:31;;;;;;;2.53;1.33;;;18.10;99.90;;;;;;5084350;28;20414;-57
2022/08/31 07:13:57;;;;;;;5.97;1.50;;;18.10;99.90;;;;;;5083923;28;20442;-56
2022/08/31 07:16:26;;;;;;;1.53;1.10;;;18.20;99.90;;;;;;5084297;28;20447;-51
2022/08/31 07:18:54;;;;;;;1.30;0.90;;;18.30;99.90;;;;;;5084500;28;20446;-54
2022/08/31 07:21:24;;;;;;;1.93;1.20;;;18.40;99.90;;;;;;5083276;28;20443;-54
2022/08/31 07:23:52;;;;;;;1.50;1.20;;;18.50;99.90;;;;;;5083465;28;20553;-48
2022/08/31 07:26:22;;;;;;;2.03;1.33;;;18.50;99.90;;;;;;5083502;28;20490;-58
2022/08/31 07:28:51;;;;;;;5.53;1.70;;;18.60;99.90;;;;;;5083284;28;20866;-54
2022/08/31 07:31:21;;;;;;;1.83;1.30;;;18.60;99.90;;;;;;5083494;28;20462;-56
2022/08/31 07:33:49;;;;;;;2.50;1.27;;;18.70;99.90;;;;;;5083018;28;20496;-52
2022/08/31 07:36:17;;;;;;;3.93;1.70;;;18.80;99.90;;;;;;5083614;28;20442;-56
2022/08/31 07:44:17;;;;;;;1.40;1.23;;;19.10;99.90;;;;;;5083002;28;20453;-59
2022/08/31 07:46:44;;;;;;;1.50;1.20;;;19.20;99.90;;;;;;5082812;28;20451;-55
2022/08/31 07:49:12;;;;;;;1.83;1.43;;;19.30;99.90;;;;;;5082896;28;20462;-54
2022/08/31 07:51:44;;;;;;;1.30;1.00;;;19.40;99.90;;;;;;5082148;28;20462;-56
2022/08/31 07:54:12;;;;;;;1.43;1.27;;;19.50;99.90;;;;;;5082191;28;20419;-56
2022/08/31 07:56:42;;;;;;;1.57;0.90;;;19.60;99.90;;;;;;5082549;28;20533;-57
2022/08/31 07:59:10;;;;;;;1.60;1.10;;;19.70;99.90;;;;;;5082294;28;20514;-55
2022/08/31 08:01:40;;;;;;;2.10;1.30;;;19.90;99.90;;;;;;5082696;28;20472;-55
2022/08/31 08:04:06;;;;;;;1.20;1.03;;;20.10;99.90;;;;;;5075872;28;20450;-56
2022/08/31 08:06:34;;;;;;;2.13;1.40;;;20.80;99.90;;;;;;5075919;28;20513;-56
2022/08/31 08:09:06;;;;;;;2.20;1.10;;;22.30;99.90;;;;;;5075530;28;20504;-56
2022/08/31 08:11:35;;;;;;;3.30;1.30;;;24.30;99.90;;;;;;5076032;28;20481;-54
2022/08/31 08:14:04;;;;;;;2.97;1.43;;;26.40;99.90;;;;;;5075585;28;20457;-58
2022/08/31 08:16:31;;;;;;;1.83;1.50;;;28.40;93.20;;;;;;5075303;28;21013;-56
2022/08/31 08:18:58;;;;;;;1.67;1.27;;;30.10;81.00;;;;;;5075443;28;20466;-54
2022/08/31 08:21:25;;;;;;;2.37;1.23;;;31.70;71.10;;;;;;5075351;28;20757;-57
2022/08/31 08:23:51;;;;;;;1.40;1.00;;;33.00;62.20;;;;;;5075245;28;20458;-59
2022/08/31 08:26:19;;;;;;;1.50;1.20;;;34.20;55.30;;;;;;5075519;28;20446;-57
2022/08/31 08:28:45;;;;;;;1.60;1.10;;;34.90;52.20;;;;;;5075164;28;20509;-55
2022/08/31 08:31:16;;;;;;;1.60;1.30;;;35.10;49.20;;;;;;5075475;28;20525;-58
2022/08/31 08:33:44;;;;;;;1.40;1.07;;;35.40;47.80;;;;;;5075262;28;20427;-55
2022/08/31 08:36:11;;;;;;;3.87;1.60;;;35.50;46.30;;;;;;5075228;28;20519;-58
2022/08/31 08:38:42;;;;;;;2.27;1.30;;;35.40;46.00;;;;;;5074787;28;20470;-57
2022/08/31 08:41:13;;;;;;;1.60;1.00;;;35.70;45.00;;;;;;5075184;28;20451;-61
2022/08/31 08:43:44;;;;;;;2.47;1.30;;;35.80;44.80;;;;;;5074814;28;20476;-55
2022/08/31 08:46:14;;;;;;;2.07;1.47;;;35.90;44.30;;;;;;5075027;28;20514;-56
2022/08/31 08:48:43;;;;;;;1.97;1.40;;;35.90;43.40;;;;;;5074505;28;20487;-58
2022/08/31 08:51:14;;;;;;;2.70;1.30;;;35.90;43.10;;;;;;5074924;28;20528;-58
2022/08/31 08:53:43;;;;;;;1.53;1.00;;;35.40;43.50;;;;;;5074915;28;20496;-55
2022/08/31 08:56:11;;;;;;;2.50;1.60;;;35.20;43.70;;;;;;5074680;28;20896;-58
2022/08/31 08:58:41;;;;;;;2.30;1.20;;;35.00;43.50;;;;;;5074826;28;20557;-55
2022/08/31 09:01:10;;;;;;;1.80;1.30;;;34.90;43.20;;;;;;5074357;28;20458;-51
2022/08/31 09:03:51;;;;;;;1.43;1.10;;;34.70;43.80;;;;;;5073866;28;20815;-53
2022/08/31 09:06:28;;;;;;;2.40;1.60;;;34.70;43.70;;;;;;5074408;28;20454;-57
2022/08/31 09:09:19;;;;;;;1.47;1.00;;;34.50;43.90;;;;;;5074664;28;20490;-60
2022/08/31 09:12:06;;;;;;;2.33;1.20;;;34.40;44.10;;;;;;5074716;28;20430;-57
2022/08/31 09:14:48;;;;;;;1.30;1.00;;;34.40;44.00;;;;;;5074720;28;20430;-64
2022/08/31 09:17:34;;;;;;;1.63;1.20;;;34.20;43.90;;;;;;5074664;28;20522;-58
2022/08/31 09:20:04;;;;;;;2.07;1.40;;;34.00;43.80;;;;;;5074732;28;20422;-57
2022/08/31 09:22:33;;;;;;;1.87;1.27;;;33.80;44.50;;;;;;5074165;28;20908;-57
2022/08/31 09:25:02;;;;;;;3.93;1.90;;;33.50;44.80;;;;;;5074384;28;20437;-52
2022/08/31 09:27:45;;;;;;;2.23;1.50;;;33.40;45.20;;;;;;5074298;28;20826;-60
2022/08/31 09:30:16;;;;;;;4.00;1.60;;;33.60;46.00;;;;;;5074599;28;20871;-59
2022/08/31 09:32:54;;;;;;;2.47;1.67;;;33.70;45.60;;;;;;5074488;28;20440;-55
2022/08/31 09:35:39;;;;;;;2.80;1.37;;;33.90;45.50;;;;;;5074252;28;20445;-60
2022/08/31 09:38:09;;;;;;;2.23;1.20;;;33.70;45.60;;;;;;5074298;28;20849;-58
2022/08/31 09:40:40;;;;;;;1.80;1.33;;;33.30;45.60;;;;;;5074171;28;20900;-57
2022/08/31 09:43:10;;;;;;;1.53;1.03;;;33.10;45.80;;;;;;5074418;28;20547;-51
2022/08/31 09:45:40;;;;;;;1.87;1.30;;;32.70;46.40;;;;;;5074393;28;20458;-54
2022/08/31 09:48:08;;;;;;;2.50;1.43;;;32.00;47.50;;;;;;5074037;28;20465;-55
2022/08/31 09:50:43;;;;;;;1.60;1.30;;;31.00;47.90;;;;;;5073941;28;20473;-57
2022/08/31 09:56:14;;;;;;;1.87;1.40;;;29.20;51.60;;;;;;5074089;28;20410;-54
2022/08/31 09:58:48;;;;;;;4.60;3.27;;;29.50;51.60;;;;;;5073810;28;20469;-52
2022/08/31 10:01:19;;;;;;;2.23;1.60;;;29.80;51.20;;;;;;5073766;28;20533;-59
2022/08/31 10:03:48;;;;;;;2.80;1.40;;;29.90;50.70;;;;;;5074205;28;20497;-59
2022/08/31 10:06:46;;;;;;;3.20;1.47;;;30.00;50.30;;;;;;5074159;28;20442;-52
2022/08/31 10:09:21;;;;;;;2.00;1.30;;;29.50;51.20;;;;;;5057211;28;20482;-57
2022/08/31 10:11:50;;;;;;;1.80;1.20;;;29.00;52.20;;;;;;5074398;28;20444;-61
2022/08/31 10:14:27;;;;;;;2.60;1.20;;;28.90;53.30;;;;;;5076719;28;20498;-57
2022/08/31 10:17:01;;;;;;;1.90;1.43;;;28.50;53.60;;;;;;5077633;28;20422;-58
2022/08/31 10:19:39;;;;;;;1.50;1.10;;;28.10;54.20;;;;;;5077885;28;20480;-57
2022/08/31 10:22:24;;;;;;;1.63;1.27;;;28.20;53.20;;;;;;5077682;28;20887;-56
2022/08/31 10:25:03;;;;;;;2.07;1.33;;;28.50;53.40;;;;;;5077771;28;20469;-58
2022/08/31 10:27:39;;;;;;;6.97;1.33;;;28.60;52.90;;;;;;5077788;28;20438;-58
2022/08/31 10:30:09;;;;;;;2.40;1.40;;;28.50;53.10;;;;;;5077231;28;20806;-58
2022/08/31 10:32:40;;;;;;;2.23;1.50;;;28.40;52.80;;;;;;5077645;28;20452;-58
2022/08/31 10:35:21;;;;;;;1.73;1.17;;;28.20;53.60;;;;;;5077393;28;20533;-58
2022/08/31 10:38:08;;;;;;;3.10;1.50;;;28.10;53.90;;;;;;5077553;28;20449;-56
2022/08/31 10:40:43;;;;;;;2.63;1.30;;;27.80;54.20;;;;;;5077609;28;20466;-57
2022/08/31 10:43:16;;;;;;;2.07;1.57;;;27.30;54.40;;;;;;5077139;28;20917;-48
2022/08/31 10:45:48;;;;;;;3.50;2.30;;;26.80;55.30;;;;;;5077459;28;20442;-57
2022/08/31 10:48:17;;;;;;;2.23;1.40;;;26.90;56.10;;;;;;5077090;28;20419;-65
2022/08/31 10:50:49;;;;;;;3.93;2.10;;;27.20;56.20;;;;;;5077358;28;20474;-55
2022/08/31 10:53:35;;;;;;;1.33;1.10;;;27.10;54.90;;;;;;5077238;28;20533;-58
2022/08/31 10:56:13;;;;;;;2.30;1.40;;;27.10;55.70;;;;;;5076909;28;20923;-56
2022/08/31 10:58:55;;;;;;;1.67;1.20;;;27.20;55.80;;;;;;5076830;28;20951;-58
2022/08/31 11:01:30;;;;;;;1.70;1.27;;;27.20;55.50;;;;;;5077360;28;20466;-57
2022/08/31 11:04:23;;;;;;;4.00;1.67;;;27.30;54.90;;;;;;5076777;28;20927;-58
2022/08/31 11:06:57;;;;;;;4.77;2.20;;;27.10;54.50;;;;;;5076934;28;20415;-57
2022/08/31 11:09:32;;;;;;;2.50;1.40;;;26.50;55.20;;;;;;5076925;28;20589;-57
2022/08/31 11:12:06;;;;;;;2.90;1.67;;;25.90;56.40;;;;;;5076670;28;20445;-58
2022/08/31 11:14:48;;;;;;;4.13;1.73;;;25.30;57.80;;;;;;5076536;28;20519;-58
2022/08/31 11:17:32;;;;;;;3.10;1.57;;;25.10;58.00;;;;;;5077024;28;20430;-58
2022/08/31 11:20:18;;;;;;;2.60;1.27;;;25.10;58.40;;;;;;5076522;28;20470;-57
2022/08/31 11:23:04;;;;;;;1.50;1.20;;;25.10;58.60;;;;;;5076511;28;20435;-58
2022/08/31 11:26:16;;;;;;;1.90;1.30;;;25.00;58.30;;;;;;5075536;28;20470;-52
2022/08/31 11:28:49;;;;;;;2.10;1.40;;;24.90;58.70;;;;;;5056156;28;20453;-53
2022/08/31 11:31:22;;;;;;;1.40;1.20;;;24.90;59.80;;;;;;5077415;28;20486;-54
2022/08/31 11:33:55;;;;;;;2.67;1.37;;;24.90;59.80;;;;;;5076375;28;21038;-56
2022/08/31 11:36:43;;;;;;;1.27;1.10;;;24.90;59.10;;;;;;5076724;28;20480;-55
2022/08/31 11:39:25;;;;;;;2.20;1.30;;;24.70;58.90;;;;;;5076527;28;20960;-55
2022/08/31 11:41:54;;;;;;;1.83;1.20;;;24.40;59.40;;;;;;5076183;28;20462;-54
2022/08/31 11:45:06;;;;;;;2.33;1.20;;;24.30;59.30;;;;;;5076244;28;20462;-56
2022/08/31 11:47:43;;;;;;;1.70;1.40;;;24.20;60.80;;;;;;5047903;28;20451;-55
2022/08/31 11:50:26;;;;;;;1.40;1.20;;;24.00;60.90;;;;;;5076099;28;20489;-57
2022/08/31 11:52:55;;;;;;;2.53;1.33;;;24.10;61.10;;;;;;5032328;28;20837;-50
2022/08/31 11:55:26;;;;;;;2.13;1.30;;;24.30;61.60;;;;;;5076094;28;20520;-58
2022/08/31 11:58:18;;;;;;;2.00;1.37;;;24.40;61.20;;;;;;5076112;28;20438;-56
2022/08/31 12:00:48;;;;;;;2.20;1.50;;;24.50;60.80;;;;;;5075762;28;20447;-51
2022/08/31 12:03:44;;;;;;;4.13;2.50;;;24.60;62.30;;;;;;5076379;28;20452;-55
2022/08/31 12:07:04;;;;;;;1.80;1.20;;;24.70;62.20;;;;;;5076011;28;20435;-57
2022/08/31 12:10:00;;;;;;;1.70;1.40;;;24.90;61.30;;;;;;5075814;28;20472;-57
2022/08/31 12:12:43;;;;;;;3.50;1.40;;;25.10;60.50;;;;;;5075812;28;20438;-58
2022/08/31 12:15:20;;;;;;;2.70;1.40;;;25.20;59.90;;;;;;5075728;28;20961;-50
2022/08/31 12:18:00;;;;;;;2.03;1.50;;;25.00;59.20;;;;;;5075467;28;20418;-57
2022/08/31 12:23:36;;;;;;;2.53;1.47;;;24.70;59.60;;;;;;5075376;28;20434;-57
2022/08/31 12:26:43;;;;;;;2.10;1.20;;;24.40;61.00;;;;;;5075705;28;20449;-53
2022/08/31 12:29:20;;;;;;;1.93;1.60;;;24.40;61.20;;;;;;5075522;28;20449;-54
2022/08/31 12:32:08;;;;;;;2.77;1.70;;;24.30;61.20;;;;;;5075508;28;20476;-55
2022/08/31 12:34:38;;;;;;;2.60;1.50;;;24.30;61.60;;;;;;5075027;28;20951;-59
2022/08/31 12:37:19;;;;;;;4.03;1.40;;;24.30;62.30;;;;;;5074713;28;20953;-55
2022/08/31 12:39:46;;;;;;;2.77;2.00;;;24.30;61.90;;;;;;5074915;28;20454;-54
2022/08/31 12:42:12;;;;;;;2.17;1.50;;;24.30;62.90;;;;;;5075010;28;20442;-59
2022/08/31 12:44:48;;;;;;;2.17;1.47;;;24.50;63.80;;;;;;5074886;28;20489;-56
2022/08/31 12:47:23;;;;;;;2.13;1.60;;;24.80;61.10;;;;;;5075218;28;20442;-55
2022/08/31 12:50:07;;;;;;;1.80;1.10;;;24.90;60.50;;;;;;5074806;28;20817;-58
2022/08/31 12:53:03;;;;;;;2.90;1.30;;;25.00;60.30;;;;;;5074789;28;20495;-58
2022/08/31 12:55:39;;;;;;;2.50;1.57;;;25.00;59.60;;;;;;5074933;28;20469;-56
2022/08/31 12:58:27;;;;;;;2.03;1.30;;;24.90;59.40;;;;;;5075055;28;20533;-57
2022/08/31 13:01:04;;;;;;;3.67;2.13;;;25.00;59.00;;;;;;5074495;28;20492;-55
2022/08/31 13:03:33;;;;;;;2.30;1.40;;;25.10;58.00;;;;;;5075051;28;20415;-56
2022/08/31 13:06:04;;;;;;;1.83;1.40;;;25.10;59.60;;;;;;5074542;28;20446;-59
2022/08/31 13:08:36;;;;;;;4.00;1.93;;;25.10;59.70;;;;;;5074627;28;20529;-52
2022/08/31 13:11:14;;;;;;;7.93;1.67;;;25.10;58.50;;;;;;5074757;28;20546;-57
2022/08/31 13:13:41;;;;;;;3.80;1.33;;;25.20;58.60;;;;;;5074637;28;20868;-57
2022/08/31 13:16:08;;;;;;;1.90;1.20;;;25.30;58.90;;;;;;5074433;28;20961;-57
2022/08/31 13:18:37;;;;;;;2.00;1.37;;;25.40;58.90;;;;;;5074461;28;20451;-58
2022/08/31 13:21:05;;;;;;;1.67;1.13;;;25.40;59.20;;;;;;5074280;28;20470;-58
2022/08/31 13:23:37;;;;;;;1.47;1.20;;;25.40;58.10;;;;;;5074607;28;20741;-60